createdAt,value
2022-10-20T03:03:14.932Z,102029.63
2022-10-20T03:05:46.150Z,101998.72
2022-10-20T03:08:17.882Z,102037.22
2022-10-20T03:10:52.507Z,102027.97
2022-10-20T03:18:14.118Z,102021.66
2022-10-20T03:24:22.246Z,101988.84
2022-10-20T03:27:06.236Z,102044.22
2022-10-20T03:29:50.127Z,101993.63
2022-10-20T09:28:24.337Z,101847.41
2022-10-20T09:30:51.744Z,101811.25
2022-10-20T09:33:29.022Z,101824.53
2022-10-20T09:36:03.597Z,101817.06
2022-10-20T09:38:56.785Z,101777.25
2022-10-20T09:41:26.575Z,101787.47
2022-10-20T09:44:05.331Z,101837.78
2022-10-20T09:46:40.025Z,101808.97
2022-10-20T09:49:07.945Z,101764.47
2022-10-20T09:51:34.695Z,101796.34
2022-10-20T09:54:03.792Z,101806.25
2022-10-20T09:56:42.604Z,101745.88
2022-10-20T09:59:29.307Z,101766.59
2022-10-20T10:02:15.604Z,101778.56
2022-10-20T10:04:55.489Z,101734.31
2022-10-20T10:07:30.446Z,101781.66
2022-10-20T10:10:05.712Z,101731.31
2022-10-20T10:12:38.281Z,101766.81
2022-10-20T10:15:21.716Z,101777.63
2022-10-20T10:18:01.500Z,101728.38
2022-10-20T10:20:48.758Z,101750.22
2022-10-20T10:23:48.943Z,101733.81
2022-10-20T10:26:43.736Z,101741.00
2022-10-20T10:29:29.522Z,101756.63
2022-10-20T10:32:04.672Z,101711.78
2022-10-20T10:34:51.839Z,101678.28
2022-10-20T10:39:46.493Z,101689.22
2022-10-20T10:42:48.218Z,101682.59
2022-10-20T10:45:49.663Z,101732.75
2022-10-20T10:48:34.427Z,101713.34
2022-10-20T10:51:05.842Z,101658.53
2022-10-20T10:53:59.544Z,101690.31
2022-10-20T10:56:47.598Z,101646.94
2022-10-20T11:00:14.492Z,101693.19
2022-10-20T11:02:49.290Z,101662.50
2022-10-20T11:05:56.816Z,101670.22
2022-10-20T11:09:24.219Z,101667.66
2022-10-20T11:12:18.856Z,101665.47
2022-10-20T11:15:16.454Z,101653.50
2022-10-20T11:18:34.291Z,101658.47
2022-10-20T11:21:39.730Z,101607.13
2022-10-20T11:24:38.197Z,101651.94
2022-10-20T11:27:10.083Z,101645.88
2022-10-20T11:30:10.165Z,101601.97
2022-10-20T11:32:52.748Z,101599.47
2022-10-20T11:40:07.707Z,101614.88
2022-10-20T11:43:01.611Z,101626.31
2022-10-20T11:45:45.319Z,101569.03
2022-10-20T11:48:23.857Z,101580.78
2022-10-20T11:51:08.715Z,101612.97
2022-10-20T11:54:00.936Z,101583.56
2022-10-20T11:57:13.513Z,101596.88
2022-10-20T12:00:04.846Z,101586.19
2022-10-20T12:03:04.684Z,101587.31
2022-10-20T12:06:23.096Z,101594.97
2022-10-20T12:09:41.851Z,101588.59
2022-10-20T12:16:36.877Z,101580.25
2022-10-20T12:19:26.417Z,101553.97
2022-10-20T12:29:42.404Z,101568.63
2022-10-20T12:32:36.815Z,101551.88
2022-10-20T12:35:32.112Z,101558.28
2022-10-20T12:38:36.729Z,101559.28
2022-10-20T12:41:30.672Z,101498.75
2022-10-20T12:47:55.625Z,101515.34
2022-10-20T12:50:46.177Z,101512.44
2022-10-20T13:00:33.096Z,101546.44
2022-10-20T13:03:51.303Z,101494.72
2022-10-20T13:07:13.501Z,101523.88
2022-10-20T13:09:59.015Z,101497.00
2022-10-20T13:12:40.004Z,101485.47
2022-10-20T13:15:14.058Z,101488.50
2022-10-20T13:18:07.916Z,101501.19
2022-10-20T13:21:15.273Z,101504.00
2022-10-20T13:24:44.915Z,101497.66
2022-10-20T13:27:16.455Z,101500.09
2022-10-20T13:30:13.402Z,101484.91
2022-10-20T13:36:44.658Z,101493.66
2022-10-20T13:39:29.453Z,101443.75
2022-10-20T13:42:56.014Z,101478.16
2022-10-20T13:45:55.302Z,101473.09
2022-10-20T14:07:53.408Z,101435.84
2022-10-20T14:25:50.279Z,101409.97
2022-10-20T14:28:19.851Z,101414.28
2022-10-20T14:30:55.616Z,101433.50
2022-10-20T14:33:32.905Z,101433.41
2022-10-20T14:36:02.760Z,101440.50
2022-10-20T14:38:35.615Z,101420.75
2022-10-20T14:41:05.215Z,101434.31
2022-10-20T14:43:47.593Z,101453.59
2022-10-20T14:46:35.820Z,101406.44
2022-10-20T14:49:52.298Z,101408.84
2022-10-20T14:55:40.808Z,101389.38
2022-10-20T14:58:35.015Z,101421.09
2022-10-20T15:01:26.365Z,101415.03
2022-10-20T15:04:23.701Z,101391.78
2022-10-20T15:07:22.577Z,101365.41
2022-10-20T15:10:18.328Z,101363.50
2022-10-20T15:13:28.016Z,101346.13
2022-10-20T15:23:38.166Z,101401.50
2022-10-20T15:39:04.610Z,101389.41
2022-10-20T15:41:36.096Z,101333.31
2022-10-20T15:44:36.961Z,101326.84
2022-10-20T15:47:23.458Z,101364.81
2022-10-20T15:49:50.444Z,101335.81
2022-10-20T16:03:58.233Z,101293.25
2022-10-20T16:07:03.043Z,101344.66
2022-10-20T16:09:30.571Z,101306.09
2022-10-20T16:12:36.854Z,101325.84
2022-10-20T16:15:05.061Z,101325.16
2022-10-20T16:17:35.737Z,101295.69
2022-10-20T16:23:34.547Z,101338.84
2022-10-20T16:36:23.195Z,101308.28
2022-10-20T16:39:13.492Z,101323.44
2022-10-20T16:42:06.611Z,101317.03
2022-10-20T16:44:35.847Z,101311.78
2022-10-20T16:51:11.433Z,101339.72
2022-10-20T16:54:20.896Z,101301.28
2022-10-20T16:57:00.593Z,101311.78
2022-10-20T18:02:31.647Z,101204.47
2022-10-20T18:28:09.117Z,101241.22
2022-10-20T18:31:29.168Z,101224.13
2022-10-20T21:28:28.173Z,101109.16
2022-10-20T21:31:18.183Z,101075.00
2022-10-20T21:33:59.187Z,101068.28
2022-10-20T21:36:31.502Z,101080.41
2022-10-20T21:39:32.417Z,101107.50
2022-10-20T21:42:19.596Z,101078.88
2022-10-20T21:44:48.401Z,101053.75
2022-10-20T21:47:21.427Z,101066.28
2022-10-20T21:49:48.012Z,101091.59
2022-10-20T21:52:14.541Z,101093.97
2022-10-20T21:54:41.076Z,101097.75
2022-10-20T21:57:07.557Z,101074.88
2022-10-20T21:59:34.115Z,101106.03
2022-10-20T22:02:02.144Z,101055.50
2022-10-20T22:04:30.012Z,101101.16
2022-10-20T22:11:08.229Z,101073.44
2022-10-20T22:13:35.206Z,101094.06
2022-10-20T22:16:05.613Z,101082.63
2022-10-20T22:18:32.437Z,101041.78
2022-10-20T22:21:09.749Z,101086.19
2022-10-20T22:23:39.277Z,101071.84
2022-10-20T22:26:09.011Z,101089.81
2022-10-20T22:28:35.979Z,101077.72
2022-10-20T22:31:03.214Z,101082.44
2022-10-20T22:33:36.400Z,101080.16
2022-10-20T22:36:04.753Z,101093.34
2022-10-20T22:38:31.286Z,101080.06
2022-10-20T22:41:07.151Z,101078.63
2022-10-20T22:43:39.095Z,101051.25
2022-10-20T22:46:06.126Z,101046.59
2022-10-20T22:48:32.979Z,101043.47
2022-10-20T22:51:00.554Z,101030.91
2022-10-20T22:53:27.083Z,101042.94
2022-10-20T22:55:54.574Z,101057.97
2022-10-20T22:58:24.373Z,101038.06
2022-10-20T23:00:51.208Z,101048.56
2022-10-20T23:03:17.727Z,101076.84
2022-10-20T23:05:44.286Z,101040.81
2022-10-20T23:08:10.873Z,101066.56
2022-10-20T23:10:37.542Z,101071.97
2022-10-20T23:13:04.409Z,101045.38
2022-10-20T23:15:31.055Z,101028.25
2022-10-20T23:17:57.762Z,101015.59
2022-10-20T23:20:24.421Z,101047.66
2022-10-20T23:22:50.989Z,101038.38
2022-10-20T23:25:17.638Z,101040.75
2022-10-20T23:27:44.275Z,101036.09
2022-10-20T23:30:11.017Z,101049.66
2022-10-20T23:32:37.458Z,101066.16
2022-10-20T23:35:04.649Z,101066.19
2022-10-20T23:37:31.203Z,101024.81
2022-10-20T23:39:57.710Z,100995.72
2022-10-20T23:42:24.231Z,101012.16
2022-10-20T23:44:50.860Z,101021.66
2022-10-20T23:47:17.514Z,101002.25
2022-10-20T23:49:44.256Z,101018.13
2022-10-20T23:52:10.712Z,101021.88
2022-10-20T23:54:37.464Z,101000.94
2022-10-20T23:57:04.272Z,101010.97
2022-10-20T23:59:59.942Z,100957.91
